Time;durP1;ratioP1;P1;durP2;ratioP2;P2;SDS_P1;SDS_P2;PMS_P1;PMS_P2;Temp;Humidity;BMP_temperature;BMP_pressure;BME280_temperature;BME280_humidity;BME280_pressure;Samples;Min_cycle;Max_cycle;Signal;HPM_P1;HPM_P2
2021/11/18 00:04:42;;;;;;;39.20;19.63;;;;;;;6.04;71.67;100974.16;10384290;28;20049;-65
2021/11/18 00:09:44;;;;;;;45.78;22.83;;;;;;;6.05;71.71;100977.63;10384854;28;20144;-65
2021/11/18 00:14:46;;;;;;;43.05;22.77;;;;;;;6.05;71.36;100970.69;10384275;28;20084;-65
2021/11/18 00:19:47;;;;;;;38.17;21.58;;;;;;;5.97;71.77;100993.38;10385057;28;20057;-63
2021/11/18 00:24:49;;;;;;;35.75;20.30;;;;;;;6.02;71.57;100994.13;10383454;28;20531;-66
2021/11/18 00:29:51;;;;;;;50.28;28.25;;;;;;;6.04;71.64;101005.31;10384241;28;20208;-64
2021/11/18 00:34:52;;;;;;;33.22;19.60;;;;;;;6.14;71.75;100988.63;10382461;28;20129;-64
2021/11/18 00:39:54;;;;;;;37.95;18.70;;;;;;;6.24;71.17;100971.06;10384389;28;20049;-64
2021/11/18 00:44:57;;;;;;;37.38;16.60;;;;;;;6.20;70.57;100975.50;10381974;28;20042;-65
2021/11/18 00:49:59;;;;;;;36.95;17.38;;;;;;;6.12;70.46;100974.81;10383867;28;20052;-65
2021/11/18 00:55:01;;;;;;;28.17;17.08;;;;;;;6.09;70.53;100974.06;10383600;28;20109;-65
2021/11/18 01:00:16;;;;;;;35.65;20.90;;;;;;;6.01;70.54;100976.84;10382555;28;20095;-65
2021/11/18 01:05:20;;;;;;;32.65;18.38;;;;;;;6.10;70.50;100976.59;10383385;28;20494;-64
2021/11/18 01:10:25;;;;;;;51.75;26.38;;;;;;;6.04;70.98;100986.31;10382497;28;20312;-65
2021/11/18 01:15:29;;;;;;;41.22;21.42;;;;;;;6.02;71.04;100995.88;10382768;28;20053;-65
2021/11/18 01:20:32;;;;;;;35.92;19.63;;;;;;;6.08;71.02;101006.94;10383402;28;20049;-64
2021/11/18 01:25:36;;;;;;;31.58;18.65;;;;;;;5.99;71.40;101004.59;10381098;28;20042;-65
2021/11/18 01:30:39;;;;;;;35.63;19.25;;;;;;;5.99;71.46;101004.59;10383251;28;20461;-65
2021/11/18 01:35:44;;;;;;;37.75;20.83;;;;;;;5.95;71.54;101023.72;10389863;28;20060;-65
2021/11/18 01:40:50;;;;;;;39.03;20.25;;;;;;;5.88;72.01;101018.72;10390895;28;20064;-65
2021/11/18 01:45:52;;;;;;;37.78;19.40;;;;;;;5.90;71.74;101016.94;10390222;28;20054;-65
2021/11/18 01:50:55;;;;;;;40.08;21.08;;;;;;;5.86;71.76;101018.75;10390341;28;20128;-64
2021/11/18 01:55:57;;;;;;;33.40;19.17;;;;;;;5.84;71.62;101025.72;10389812;28;20184;-65
2021/11/18 02:00:59;;;;;;;36.67;21.02;;;;;;;5.84;71.43;101032.66;10388478;28;20050;-65
2021/11/18 02:06:15;;;;;;;36.30;19.60;;;;;;;5.80;71.53;101042.25;10388480;28;20046;-65
2021/11/18 02:11:32;;;;;;;33.22;18.92;;;;;;;5.79;71.20;101048.34;10389488;28;20121;-65
2021/11/18 02:16:34;;;;;;;37.97;18.52;;;;;;;5.80;70.82;101044.84;10388762;28;20120;-64
2021/11/18 02:21:39;;;;;;;39.45;19.77;;;;;;;5.82;70.76;101043.06;10388920;28;20049;-65
2021/11/18 02:26:40;;;;;;;43.13;21.92;;;;;;;5.81;70.56;101050.91;10388717;28;20049;-65
2021/11/18 02:31:47;;;;;;;43.58;19.70;;;;;;;5.74;70.34;101060.56;10388839;28;20056;-65
2021/11/18 02:36:49;;;;;;;32.10;17.13;;;;;;;5.69;70.21;101069.34;10388109;28;20505;-65
2021/11/18 02:41:51;;;;;;;54.75;20.70;;;;;;;5.52;70.13;101054.13;10388444;28;20049;-64
2021/11/18 02:46:53;;;;;;;49.78;20.80;;;;;;;5.41;70.44;101063.88;10387196;28;20057;-65
2021/11/18 02:51:55;;;;;;;43.00;19.60;;;;;;;5.27;70.58;101063.28;10387462;28;20490;-65
2021/11/18 02:56:57;;;;;;;33.67;16.77;;;;;;;5.24;70.41;101059.03;10387052;28;20148;-65
2021/11/18 03:01:58;;;;;;;33.47;17.98;;;;;;;5.27;70.46;101071.94;10389609;28;20059;-65
2021/11/18 03:07:02;;;;;;;31.13;17.08;;;;;;;5.25;70.51;101078.88;10394261;28;20463;-65
2021/11/18 03:12:04;;;;;;;28.17;17.35;;;;;;;5.28;70.33;101075.38;10394824;28;20385;-65
2021/11/18 03:17:06;;;;;;;38.63;19.15;;;;;;;5.24;70.51;101081.53;10394250;28;20153;-65
2021/11/18 03:22:08;;;;;;;35.85;18.13;;;;;;;5.20;70.62;101077.28;10394424;28;20399;-65
2021/11/18 03:27:10;;;;;;;43.95;20.33;;;;;;;5.16;70.41;101075.63;10393560;28;20071;-65
2021/11/18 03:32:12;;;;;;;39.72;20.00;;;;;;;5.10;70.64;101078.34;10394194;28;20056;-65
2021/11/18 03:37:13;;;;;;;38.90;19.02;;;;;;;5.06;70.84;101087.94;10393328;28;20502;-65
2021/11/18 03:42:15;;;;;;;39.13;19.17;;;;;;;5.07;70.75;101096.53;10393019;28;20045;-64
2021/11/18 03:47:17;;;;;;;75.22;21.52;;;;;;;4.93;70.33;101098.53;10393020;28;20753;-65
2021/11/18 03:52:19;;;;;;;32.47;16.90;;;;;;;4.79;70.39;101100.53;10392897;28;20056;-65
2021/11/18 03:57:21;;;;;;;34.83;18.25;;;;;;;4.75;70.72;101109.22;10391979;28;20053;-65
2021/11/18 04:02:22;;;;;;;52.72;20.10;;;;;;;4.74;70.66;101108.38;10390962;28;20483;-65
2021/11/18 04:07:24;;;;;;;39.55;17.50;;;;;;;4.71;70.54;101113.63;10387630;28;20132;-65
2021/11/18 04:12:26;;;;;;;38.05;19.10;;;;;;;4.61;70.59;101125.03;10385318;28;20057;-65
2021/11/18 04:17:28;;;;;;;56.17;21.13;;;;;;;4.49;70.63;101128.69;10385319;28;20059;-65
2021/11/18 04:22:29;;;;;;;49.03;19.58;;;;;;;4.38;70.87;101127.97;10385350;28;20053;-65
2021/11/18 04:27:31;;;;;;;39.10;19.33;;;;;;;4.28;70.95;101125.53;10383754;28;20049;-65
2021/11/18 04:32:33;;;;;;;41.60;18.42;;;;;;;4.14;71.06;101125.75;10385090;28;20042;-65
2021/11/18 04:37:35;;;;;;;50.05;19.38;;;;;;;4.14;70.75;101127.47;10385188;28;20050;-65
2021/11/18 04:42:39;;;;;;;43.90;20.50;;;;;;;4.16;71.11;101129.19;10384387;28;20071;-65
2021/11/18 04:47:40;;;;;;;48.60;20.48;;;;;;;4.18;70.90;101124.84;10384768;28;20045;-66
2021/11/18 04:52:43;;;;;;;42.55;18.02;;;;;;;4.20;70.81;101125.66;10384552;28;20049;-65
2021/11/18 04:57:47;;;;;;;222.07;21.55;;;;;;;4.18;70.25;101131.75;10383122;28;20510;-66
2021/11/18 05:02:49;;;;;;;262.38;18.30;;;;;;;4.06;70.41;101143.13;10384496;28;20545;-66
2021/11/18 05:07:52;;;;;;;423.35;23.98;;;;;;;3.92;70.28;101139.88;10387223;28;20085;-66
2021/11/18 05:12:54;;;;;;;670.45;27.55;;;;;;;3.77;70.57;101145.22;10393064;28;20045;-65
2021/11/18 05:17:56;;;;;;;548.22;26.48;;;;;;;3.76;70.38;101143.50;10392005;28;20053;-66
2021/11/18 05:22:59;;;;;;;390.73;23.80;;;;;;;3.77;70.13;101145.22;10391989;28;20124;-66
2021/11/18 05:28:01;;;;;;;65.70;17.90;;;;;;;3.77;70.49;101140.03;10392348;28;20140;-66
2021/11/18 05:33:10;;;;;;;38.47;17.92;;;;;;;3.77;70.76;101142.63;10390619;28;20140;-66
2021/11/18 05:38:12;;;;;;;53.65;24.15;;;;;;;3.82;71.03;101140.84;10392203;28;20516;-66
2021/11/18 05:43:14;;;;;;;51.88;22.45;;;;;;;3.86;71.42;101139.97;10390224;28;20049;-66
2021/11/18 05:48:18;;;;;;;43.05;20.13;;;;;;;4.01;71.56;101137.16;10391409;28;20059;-66
2021/11/18 05:53:25;;;;;;;38.78;20.52;;;;;;;4.04;72.04;101129.34;10389928;28;20049;-65
2021/11/18 05:58:27;;;;;;;44.03;22.38;;;;;;;4.05;72.67;101128.47;10390906;28;20212;-66
2021/11/18 06:03:35;;;;;;;42.63;21.17;;;;;;;4.21;72.61;101139.47;10388965;28;20428;-66
2021/11/18 06:08:39;;;;;;;46.15;19.88;;;;;;;4.42;72.22;101144.31;10390755;28;20056;-66
2021/11/18 06:13:41;;;;;;;40.63;21.30;;;;;;;4.46;72.30;101162.38;10389551;28;20049;-66
2021/11/18 06:18:44;;;;;;;41.92;21.35;;;;;;;4.58;71.96;101164.78;10389227;28;20053;-66
2021/11/18 06:23:46;;;;;;;40.85;20.10;;;;;;;4.67;71.76;101175.00;10389230;28;20136;-66
2021/11/18 06:28:48;;;;;;;47.20;22.15;;;;;;;4.66;71.59;101185.38;10404573;28;20417;-66
2021/11/18 06:33:51;;;;;;;42.95;20.63;;;;;;;4.73;71.58;101194.78;10388930;28;20049;-66
2021/11/18 06:38:53;;;;;;;41.80;21.23;;;;;;;4.82;71.36;101196.38;10390161;28;20692;-66
2021/11/18 06:43:57;;;;;;;44.92;21.55;;;;;;;4.88;71.26;101193.69;10387908;28;20054;-66
2021/11/18 06:48:59;;;;;;;41.97;19.95;;;;;;;4.94;71.04;101194.44;10387490;28;20049;-66
2021/11/18 06:54:01;;;;;;;41.42;20.23;;;;;;;4.88;71.31;101204.91;10388205;28;20049;-66
2021/11/18 06:59:04;;;;;;;42.10;20.80;;;;;;;5.02;71.00;101204.69;10388969;28;20076;-66
2021/11/18 07:04:07;;;;;;;44.63;22.42;;;;;;;5.10;70.72;101219.22;10384248;28;20511;-66
2021/11/18 07:09:10;;;;;;;39.22;20.95;;;;;;;5.24;70.35;101229.34;10387468;28;20056;-66
2021/11/18 07:14:12;;;;;;;39.72;20.52;;;;;;;5.26;70.38;101232.78;10386252;28;20080;-66
2021/11/18 07:19:14;;;;;;;49.40;22.60;;;;;;;5.38;70.26;101242.94;10386448;28;20128;-66
2021/11/18 07:24:17;;;;;;;54.15;23.27;;;;;;;5.53;70.07;101240.06;10386536;28;20156;-66
2021/11/18 07:29:22;;;;;;;44.72;21.30;;;;;;;5.64;69.72;101238.13;10385022;28;20041;-66
2021/11/18 07:34:25;;;;;;;40.97;21.00;;;;;;;5.67;69.56;101248.47;10386918;28;20143;-66
2021/11/18 07:39:26;;;;;;;43.28;21.52;;;;;;;5.77;69.43;101247.41;10383901;28;20049;-66
2021/11/18 07:44:29;;;;;;;46.97;23.08;;;;;;;5.95;69.32;101251.34;10385851;28;20045;-66
2021/11/18 07:49:32;;;;;;;40.13;20.63;;;;;;;5.98;69.15;101253.91;10385833;28;20041;-66
2021/11/18 07:54:33;;;;;;;42.65;19.60;;;;;;;6.11;68.80;101266.59;10377605;28;20053;-66
2021/11/18 07:59:35;;;;;;;43.33;20.90;;;;;;;6.14;68.60;101257.91;10364120;28;20505;-66
2021/11/18 08:04:37;;;;;;;40.08;20.10;;;;;;;6.15;68.91;101255.25;10382724;28;20531;-66
2021/11/18 08:09:39;;;;;;;35.15;20.83;;;;;;;6.33;68.59;101259.25;10385795;28;20088;-66
2021/11/18 08:14:40;;;;;;;36.35;18.27;;;;;;;6.43;68.46;101258.16;10384711;28;20146;-66
2021/11/18 08:19:42;;;;;;;29.13;16.73;;;;;;;6.49;68.13;101254.59;10384327;28;20485;-67
2021/11/18 08:24:44;;;;;;;30.00;17.20;;;;;;;6.65;67.96;101256.81;10384907;28;20571;-66
2021/11/18 08:29:47;;;;;;;35.58;17.40;;;;;;;6.68;67.71;101253.28;10385186;28;20128;-67
2021/11/18 08:34:48;;;;;;;30.95;16.73;;;;;;;6.74;67.49;101256.59;10382418;28;20167;-67
2021/11/18 08:39:50;;;;;;;42.85;23.13;;;;;;;6.81;67.34;101252.97;10384636;28;20049;-67
2021/11/18 08:44:52;;;;;;;27.80;17.10;;;;;;;6.94;67.10;101248.31;10383911;28;20520;-66
2021/11/18 08:49:54;;;;;;;32.15;16.70;;;;;;;7.02;66.58;101246.41;10384452;28;20462;-66
2021/11/18 08:54:58;;;;;;;39.75;18.52;;;;;;;7.14;66.30;101246.09;10384419;28;20053;-66
2021/11/18 09:00:00;;;;;;;27.33;16.38;;;;;;;7.03;66.38;101256.78;10384213;28;20081;-66
2021/11/18 09:05:02;;;;;;;26.55;15.63;;;;;;;7.15;66.09;101253.00;10385013;28;21345;-67
2021/11/18 09:10:05;;;;;;;24.67;14.30;;;;;;;7.42;65.68;101254.91;10382413;28;20064;-66
2021/11/18 09:15:09;;;;;;;25.45;14.02;;;;;;;7.46;65.59;101269.56;10384108;28;20228;-66
2021/11/18 09:20:13;;;;;;;23.20;15.05;;;;;;;7.63;65.01;101276.94;10384227;28;20056;-66
2021/11/18 09:25:16;;;;;;;31.38;17.25;;;;;;;7.59;64.89;101277.91;10383685;28;20136;-66
2021/11/18 09:30:23;;;;;;;30.83;16.17;;;;;;;7.61;64.82;101291.75;10383321;28;20807;-67
2021/11/18 09:35:32;;;;;;;24.35;14.40;;;;;;;7.60;64.70;101290.88;10383572;28;20341;-67
2021/11/18 09:40:43;;;;;;;27.33;13.75;;;;;;;7.80;64.39;101300.75;10380043;28;20087;-67
2021/11/18 09:46:19;;;;;;;30.87;15.23;;;;;;;7.91;64.04;101298.72;10383445;28;20533;-66
2021/11/18 09:51:51;;;;;;;25.58;14.40;;;;;;;7.85;63.55;101309.31;10382575;28;20521;-66
2021/11/18 09:57:32;;;;;;;28.08;14.65;;;;;;;8.07;63.61;101320.00;10387873;28;20057;-66
2021/11/18 10:02:44;;;;;;;23.67;13.05;;;;;;;8.11;62.97;101313.84;10390567;28;20050;-66
2021/11/18 10:07:50;;;;;;;23.13;13.70;;;;;;;8.19;63.64;101317.09;10390330;28;20528;-66
2021/11/18 10:13:05;;;;;;;20.80;12.20;;;;;;;8.25;63.40;101299.53;10390170;28;20057;-66
2021/11/18 10:18:20;;;;;;;24.45;13.23;;;;;;;8.50;62.93;101292.72;10387634;28;20057;-77
2021/11/18 10:23:24;;;;;;;21.60;12.38;;;;;;;9.10;62.23;101287.34;10390462;28;21028;-77
2021/11/18 10:28:35;;;;;;;22.02;11.32;;;;;;;9.24;60.97;101269.47;10388420;28;20437;-78
2021/11/18 10:33:49;;;;;;;;;;;;;;;9.04;60.65;101277.09;10388517;28;20589;-80
2021/11/18 10:39:06;;;;;;;18.95;10.70;;;;;;;9.44;59.99;101293.16;10389561;28;19936;-78
2021/11/18 10:44:15;;;;;;;17.88;10.20;;;;;;;9.56;60.01;101311.03;10387609;28;20180;-78
2021/11/18 10:49:29;;;;;;;17.50;9.07;;;;;;;9.51;60.23;101294.66;10389217;28;20895;-78
2021/11/18 10:54:46;;;;;;;18.45;9.18;;;;;;;9.52;58.46;101292.91;10387578;28;20053;-77
2021/11/18 10:59:54;;;;;;;17.42;8.95;;;;;;;9.76;59.46;101291.25;10386325;28;20081;-78
2021/11/18 11:04:59;;;;;;;18.23;8.20;;;;;;;9.92;58.96;101279.34;10387313;28;20822;-78
2021/11/18 11:10:05;;;;;;;16.05;8.07;;;;;;;9.88;59.22;101251.63;10386896;28;20049;-78
2021/11/18 11:15:40;;;;;;;16.20;8.73;;;;;;;9.77;58.43;101243.34;10384971;28;20450;-81
2021/11/18 11:21:16;;;;;;;17.92;8.80;;;;;;;9.57;59.13;101238.75;10386495;28;20132;-80
2021/11/18 11:26:36;;;;;;;16.52;7.57;;;;;;;9.28;59.37;101233.69;10380126;28;20045;-81
2021/11/18 11:31:59;;;;;;;19.77;8.73;;;;;;;9.14;59.82;101222.84;10385203;28;20519;-81
2021/11/18 11:37:37;;;;;;;14.38;7.40;;;;;;;9.38;59.75;101224.66;10382628;28;20053;-80
2021/11/18 11:43:02;;;;;;;16.38;7.68;;;;;;;9.41;59.08;101222.78;10363499;28;20059;-80
2021/11/18 11:48:22;;;;;;;16.13;7.00;;;;;;;9.64;59.38;101211.53;10364935;28;20053;-82
2021/11/18 11:53:37;;;;;;;16.80;7.90;;;;;;;9.68;59.17;101212.28;10382559;28;20607;-81
2021/11/18 11:58:55;;;;;;;14.40;6.97;;;;;;;9.87;58.26;101208.13;10384598;28;20521;-82
2021/11/18 12:04:15;;;;;;;17.73;7.47;;;;;;;9.92;58.91;101191.34;10385677;28;20777;-82
2021/11/18 12:09:32;;;;;;;16.58;6.93;;;;;;;9.97;58.85;101191.19;10381885;28;20057;-80
2021/11/18 12:14:40;;;;;;;15.38;7.25;;;;;;;10.19;58.38;101199.94;10380152;28;20458;-81
2021/11/18 12:19:48;;;;;;;17.48;7.30;;;;;;;10.26;58.34;101206.59;10382284;28;20453;-80
2021/11/18 12:25:08;;;;;;;18.02;7.63;;;;;;;10.24;57.84;101217.13;10382830;28;20049;-81
2021/11/18 12:30:24;;;;;;;15.30;6.90;;;;;;;10.50;57.53;101205.69;10384215;28;20144;-78
2021/11/18 12:35:29;;;;;;;16.83;6.22;;;;;;;10.46;57.54;101188.41;10384276;28;20045;-79
2021/11/18 12:40:58;;;;;;;14.45;6.47;;;;;;;10.15;57.42;101187.88;10382208;28;20413;-79
2021/11/18 12:46:14;;;;;;;17.38;6.63;;;;;;;10.17;57.55;101176.47;10382434;28;20053;-80
2021/11/18 12:51:41;;;;;;;15.68;5.90;;;;;;;10.24;57.47;101167.47;10382806;28;20041;-79
2021/11/18 12:56:52;;;;;;;14.73;6.22;;;;;;;10.13;57.36;101161.81;10378825;28;20060;-80
2021/11/18 13:01:58;;;;;;;14.75;5.18;;;;;;;10.06;58.14;101152.47;10375050;28;20046;-79
2021/11/18 13:07:09;;;;;;;14.30;5.72;;;;;;;9.99;56.93;101152.78;10380731;28;20417;-80
2021/11/18 13:12:28;;;;;;;13.63;4.32;;;;;;;10.00;56.74;101126.59;10377589;28;20053;-80
2021/11/18 13:17:38;;;;;;;12.07;5.05;;;;;;;10.09;56.34;101109.69;10375230;28;20067;-81
2021/11/18 13:22:51;;;;;;;11.77;3.83;;;;;;;9.97;56.13;101121.47;10365350;28;20134;-79
2021/11/18 13:28:00;;;;;;;13.55;3.72;;;;;;;9.81;57.09;101109.06;10380627;28;20135;-79
2021/11/18 13:33:24;;;;;;;12.52;3.67;;;;;;;9.72;57.31;101117.22;10387819;28;20115;-79
2021/11/18 13:38:30;;;;;;;12.40;3.67;;;;;;;9.75;57.36;101115.34;10389253;28;20059;-79
2021/11/18 13:43:51;;;;;;;10.98;3.90;;;;;;;9.68;56.86;101128.72;10388692;28;20049;-81
2021/11/18 13:49:13;;;;;;;14.52;3.97;;;;;;;9.82;57.04;101135.13;10387275;28;20632;-80
2021/11/18 13:54:24;;;;;;;13.13;3.60;;;;;;;9.69;56.92;101133.88;10387569;28;20042;-81
2021/11/18 13:59:34;;;;;;;12.13;4.10;;;;;;;9.64;57.36;101144.47;10386161;28;20204;-80
2021/11/18 14:04:43;;;;;;;14.07;3.72;;;;;;;9.41;57.79;101144.44;10386903;28;20043;-78
2021/11/18 14:10:02;;;;;;;17.02;4.20;;;;;;;9.24;57.33;101157.22;10388316;28;20053;-76
2021/11/18 14:15:29;;;;;;;10.13;3.83;;;;;;;9.02;57.72;101153.66;10380892;28;20144;-76
2021/11/18 14:20:43;;;;;;;11.27;3.55;;;;;;;9.01;58.29;101156.31;10368573;28;20095;-79
2021/11/18 14:25:59;;;;;;;11.95;3.92;;;;;;;8.97;58.11;101152.13;10385881;28;20425;-76
2021/11/18 14:31:02;;;;;;;16.38;4.60;;;;;;;8.96;58.65;101147.78;10379736;28;20073;-75
2021/11/18 14:36:13;;;;;;;11.43;3.88;;;;;;;8.92;58.81;101144.44;10394987;28;20049;-76
2021/11/18 14:41:32;;;;;;;13.60;4.88;;;;;;;8.86;58.91;101142.03;10381689;28;20536;-70
2021/11/18 14:46:44;;;;;;;12.93;4.38;;;;;;;8.73;59.21;101141.59;10382380;28;20045;-74
2021/11/18 14:51:50;;;;;;;11.15;4.63;;;;;;;8.62;59.58;101135.88;10374314;28;20064;-74
2021/11/18 14:56:55;;;;;;;16.08;4.30;;;;;;;8.40;60.01;101141.84;10376243;28;20516;-75
2021/11/18 15:02:01;;;;;;;12.73;4.35;;;;;;;8.35;60.15;101148.94;10376286;28;20046;-74
2021/11/18 15:07:08;;;;;;;12.30;4.43;;;;;;;8.59;59.85;101145.53;10381061;28;20894;-76
2021/11/18 15:12:13;;;;;;;18.40;8.82;;;;;;;8.37;60.11;101163.63;10383181;28;20057;-77
2021/11/18 15:17:16;;;;;;;13.32;4.88;;;;;;;8.18;60.43;101172.91;10385114;28;20140;-80
2021/11/18 15:22:22;;;;;;;14.55;4.97;;;;;;;8.03;60.79;101194.19;10388126;28;20077;-78
2021/11/18 15:27:25;;;;;;;11.43;5.13;;;;;;;7.96;60.95;101188.28;10384365;28;20057;-80
2021/11/18 15:32:30;;;;;;;16.92;5.95;;;;;;;7.86;61.16;101184.25;10385879;28;20351;-78
2021/11/18 15:37:31;;;;;;;11.73;5.38;;;;;;;7.75;61.47;101168.06;10381822;28;20057;-78
2021/11/18 15:42:34;;;;;;;13.52;5.60;;;;;;;7.60;61.79;101160.72;10385235;28;20045;-79
2021/11/18 15:47:36;;;;;;;19.55;8.35;;;;;;;7.50;62.03;101185.28;10383469;28;20571;-81
2021/11/18 15:52:38;;;;;;;20.17;8.63;;;;;;;7.38;62.40;101174.34;10381849;28;20295;-80
2021/11/18 15:57:59;;;;;;;15.65;5.30;;;;;;;7.21;62.92;101164.38;10381219;28;20054;-80
2021/11/18 16:03:05;;;;;;;19.25;5.65;;;;;;;7.11;63.31;101168.13;10381180;28;20056;-77
2021/11/18 16:08:08;;;;;;;14.15;5.70;;;;;;;7.08;63.17;101176.84;10388764;28;20053;-78
2021/11/18 16:13:12;;;;;;;15.60;5.80;;;;;;;7.03;63.42;101170.06;10381631;28;20049;-79
2021/11/18 16:18:16;;;;;;;16.63;5.95;;;;;;;6.93;63.82;101174.66;10384093;28;20759;-79
2021/11/18 16:23:18;;;;;;;16.45;5.95;;;;;;;6.86;63.89;101186.09;10380959;28;20041;-81
2021/11/18 16:28:21;;;;;;;13.88;6.35;;;;;;;6.92;63.84;101196.34;10387771;28;20073;-80
2021/11/18 16:33:23;;;;;;;17.15;7.90;;;;;;;6.93;63.81;101205.00;10381689;28;20049;-81
2021/11/18 16:38:32;;;;;;;21.30;7.65;;;;;;;6.91;63.96;101222.41;10385899;28;20140;-80
2021/11/18 16:43:34;;;;;;;15.07;6.68;;;;;;;6.83;64.25;101206.13;10382578;28;20060;-80
2021/11/18 16:48:36;;;;;;;21.35;9.70;;;;;;;6.76;64.08;101202.81;10381440;28;20570;-80
2021/11/18 16:53:39;;;;;;;26.45;12.85;;;;;;;6.65;64.44;101197.03;10383564;28;20129;-82
2021/11/18 16:58:44;;;;;;;25.95;11.80;;;;;;;6.58;64.76;101213.66;10378700;28;20409;-81
2021/11/18 17:03:47;;;;;;;17.58;7.13;;;;;;;6.50;64.89;101214.69;10383345;28;20416;-78
2021/11/18 17:08:51;;;;;;;18.65;7.45;;;;;;;6.42;65.20;101233.06;10390804;28;20055;-81
2021/11/18 17:13:53;;;;;;;18.50;7.60;;;;;;;6.36;65.41;101246.19;10389620;28;20220;-80
2021/11/18 17:18:56;;;;;;;20.10;7.68;;;;;;;6.32;65.42;101236.75;10389721;28;20049;-81
2021/11/18 17:23:58;;;;;;;18.63;7.45;;;;;;;6.29;65.41;101231.63;10385630;28;20045;-80
2021/11/18 17:29:05;;;;;;;18.27;6.78;;;;;;;6.26;65.45;101240.34;10389198;28;20081;-65
2021/11/18 17:34:08;;;;;;;20.33;7.57;;;;;;;6.27;65.35;101239.44;10385559;28;20128;-66
2021/11/18 17:39:16;;;;;;;15.70;8.57;;;;;;;6.17;65.68;101243.09;10376323;28;20126;-66
2021/11/18 17:44:19;;;;;;;19.73;9.20;;;;;;;6.17;65.64;101247.44;10376523;28;20048;-66
2021/11/18 17:49:24;;;;;;;21.52;10.80;;;;;;;6.09;65.94;101245.00;10382357;28;20063;-66
2021/11/18 17:54:26;;;;;;;22.42;10.35;;;;;;;6.03;65.96;101246.88;10389074;28;20136;-66
2021/11/18 17:59:29;;;;;;;22.30;8.85;;;;;;;6.01;66.15;101261.63;10386750;28;20163;-65
2021/11/18 18:04:32;;;;;;;21.58;7.95;;;;;;;5.95;66.26;101266.94;10386354;28;20132;-66
2021/11/18 18:09:39;;;;;;;19.05;7.50;;;;;;;5.88;66.54;101267.97;10383018;28;20412;-65
2021/11/18 18:14:42;;;;;;;20.25;7.47;;;;;;;6.02;66.08;101281.53;10381806;28;20064;-66
2021/11/18 18:19:45;;;;;;;16.40;7.60;;;;;;;6.10;66.17;101277.03;10385784;28;20045;-65
2021/11/18 18:24:48;;;;;;;22.98;7.90;;;;;;;6.24;65.81;101269.81;10383177;28;20617;-66
2021/11/18 18:29:51;;;;;;;20.67;7.85;;;;;;;6.31;65.62;101282.66;10382590;28;20057;-66
2021/11/18 18:34:55;;;;;;;23.70;7.45;;;;;;;6.37;65.50;101286.03;10385859;28;20592;-66
2021/11/18 18:39:58;;;;;;;17.70;7.22;;;;;;;6.34;65.62;101286.94;10383537;28;20132;-64
2021/11/18 18:45:00;;;;;;;17.02;7.47;;;;;;;6.31;65.80;101281.81;10385744;28;20049;-67
2021/11/18 18:50:05;;;;;;;18.77;7.07;;;;;;;6.32;65.92;101278.34;10386210;28;20127;-66
2021/11/18 18:55:11;;;;;;;19.02;7.68;;;;;;;6.34;65.69;101274.81;10378102;28;20466;-65
2021/11/18 19:00:16;;;;;;;18.10;7.70;;;;;;;6.45;65.77;101269.38;10382449;28;20553;-66
2021/11/18 19:05:19;;;;;;;20.52;8.07;;;;;;;6.55;65.59;101268.28;10385476;28;20505;-65
2021/11/18 19:10:26;;;;;;;19.80;8.10;;;;;;;6.55;65.47;101273.47;10385067;28;20152;-64
2021/11/18 19:15:34;;;;;;;20.17;8.65;;;;;;;6.65;65.39;101267.22;10384626;28;20042;-64
2021/11/18 19:20:37;;;;;;;23.85;8.43;;;;;;;6.65;65.40;101264.63;10385368;28;20042;-64
2021/11/18 19:25:47;;;;;;;19.65;8.63;;;;;;;6.66;65.46;101265.44;10382050;28;20060;-64
2021/11/18 19:36:14;;;;;;;22.08;9.57;;;;;;;6.69;65.48;101273.19;10385418;28;20136;-66
2021/11/18 19:41:23;;;;;;;19.65;9.57;;;;;;;6.74;65.44;101284.31;10385343;28;20049;-65
2021/11/18 19:46:30;;;;;;;21.13;9.60;;;;;;;6.83;65.19;101277.19;10384937;28;20041;-66
2021/11/18 19:51:44;;;;;;;20.95;10.35;;;;;;;6.84;65.06;101263.28;10385218;28;20054;-65
2021/11/18 19:56:48;;;;;;;22.67;9.82;;;;;;;6.84;65.09;101267.63;10385008;28;20053;-65
2021/11/18 20:01:57;;;;;;;21.30;9.20;;;;;;;6.76;65.27;101273.00;10386738;28;20049;-66
2021/11/18 20:07:00;;;;;;;23.10;9.68;;;;;;;6.79;65.37;101272.09;10385852;28;20054;-65
2021/11/18 20:12:06;;;;;;;23.45;9.45;;;;;;;6.75;65.45;101273.91;10383487;28;20068;-65
2021/11/18 20:17:14;;;;;;;24.25;9.70;;;;;;;6.73;65.35;101282.63;10384834;28;20488;-65
2021/11/18 20:22:28;;;;;;;21.33;9.75;;;;;;;6.71;65.38;101282.69;10385115;28;20048;-66
2021/11/18 20:27:30;;;;;;;21.42;8.90;;;;;;;6.82;65.24;101287.59;10367998;28;20510;-66
2021/11/18 20:32:36;;;;;;;21.77;9.55;;;;;;;6.84;65.26;101289.28;10382923;28;20049;-66
2021/11/18 20:37:38;;;;;;;18.48;9.10;;;;;;;6.92;64.94;101291.69;10382462;28;20119;-65
2021/11/18 20:42:41;;;;;;;23.02;9.65;;;;;;;6.89;65.15;101290.06;10383531;28;20063;-66
2021/11/18 20:47:44;;;;;;;28.27;9.55;;;;;;;6.93;64.91;101288.22;10384154;28;20053;-65
2021/11/18 20:52:48;;;;;;;22.45;10.15;;;;;;;6.79;65.15;101282.50;10383553;28;20163;-66
2021/11/18 20:57:50;;;;;;;26.05;10.55;;;;;;;6.73;65.17;101295.63;10384559;28;20140;-65
2021/11/18 21:02:52;;;;;;;24.48;10.05;;;;;;;6.67;65.45;101288.84;10384369;28;20153;-66
2021/11/18 21:07:54;;;;;;;23.63;10.60;;;;;;;6.62;65.55;101295.00;10383204;28;20694;-66
2021/11/18 21:12:57;;;;;;;22.75;10.77;;;;;;;6.60;65.80;101297.63;10383284;28;20136;-65
2021/11/18 21:17:59;;;;;;;26.33;10.82;;;;;;;6.53;65.89;101300.41;10382112;28;20053;-65
2021/11/18 21:23:02;;;;;;;29.65;12.13;;;;;;;6.50;66.06;101296.13;10383265;28;20150;-65
2021/11/18 21:28:04;;;;;;;24.38;11.35;;;;;;;6.49;66.41;101288.38;10383792;28;20053;-65
2021/11/18 21:33:07;;;;;;;26.27;11.82;;;;;;;6.55;66.30;101296.03;10381331;28;20041;-65
2021/11/18 21:38:12;;;;;;;29.10;13.43;;;;;;;6.47;66.62;101292.75;10382488;28;20049;-65
2021/11/18 21:43:32;;;;;;;36.78;13.07;;;;;;;6.32;67.06;101287.00;10382691;28;20478;-65
2021/11/18 21:48:37;;;;;;;28.17;12.57;;;;;;;6.44;66.83;101279.81;10383063;28;20049;-65
2021/11/18 21:53:45;;;;;;;30.00;13.57;;;;;;;6.34;66.95;101274.81;10390330;28;20052;-65
2021/11/18 21:58:54;;;;;;;26.80;12.35;;;;;;;6.30;67.15;101273.19;10389970;28;20493;-65
2021/11/18 22:03:58;;;;;;;26.27;12.48;;;;;;;6.24;67.34;101268.06;10390185;28;20465;-65
2021/11/18 22:09:02;;;;;;;26.55;11.70;;;;;;;6.27;67.17;101260.25;10389737;28;20720;-65
2021/11/18 22:14:05;;;;;;;26.52;11.40;;;;;;;6.34;67.09;101245.38;10388964;28;20492;-65
2021/11/18 22:19:08;;;;;;;27.50;10.82;;;;;;;6.30;67.24;101249.78;10389654;28;20092;-65
2021/11/18 22:24:10;;;;;;;27.02;11.10;;;;;;;6.24;67.52;101257.69;10390251;28;20132;-65
2021/11/18 22:29:15;;;;;;;31.27;10.77;;;;;;;6.30;67.78;101261.91;10388724;28;20044;-65
2021/11/18 22:34:17;;;;;;;24.67;9.93;;;;;;;6.29;67.82;101261.06;10388905;28;20088;-65
2021/11/18 22:39:28;;;;;;;25.50;11.00;;;;;;;6.42;67.68;101253.88;10388076;28;20059;-65
2021/11/18 22:44:51;;;;;;;27.70;11.15;;;;;;;6.49;67.64;101260.63;10388595;28;20320;-65
2021/11/18 22:49:53;;;;;;;24.65;10.55;;;;;;;6.54;67.55;101256.19;10387988;28;20056;-65
2021/11/18 22:54:55;;;;;;;27.45;10.55;;;;;;;6.65;67.38;101254.22;10388486;28;20047;-65
2021/11/18 22:59:57;;;;;;;24.85;10.00;;;;;;;6.68;67.25;101261.06;10387278;28;20060;-65
2021/11/18 23:04:59;;;;;;;24.80;9.60;;;;;;;6.72;67.33;101257.50;10386575;28;20382;-65
2021/11/18 23:10:05;;;;;;;23.75;9.35;;;;;;;6.67;67.39;101259.38;10386812;28;20068;-65
2021/11/18 23:15:08;;;;;;;27.95;10.77;;;;;;;6.73;67.51;101251.44;10386812;28;20376;-65
2021/11/18 23:20:13;;;;;;;25.65;10.23;;;;;;;6.77;67.39;101253.06;10386982;28;20057;-65
2021/11/18 23:25:16;;;;;;;25.20;10.07;;;;;;;6.71;67.65;101248.00;10386708;28;20120;-65